createdAt,value
2017-10-20T00:00:38.711Z,56.89
2017-10-20T00:01:38.714Z,56.99
2017-10-20T00:02:38.713Z,57.37
2017-10-20T00:03:38.714Z,57.24
2017-10-20T00:04:38.716Z,57.34
2017-10-20T00:05:38.737Z,57.72
2017-10-20T00:06:38.721Z,57.63
2017-10-20T00:07:38.901Z,57.43
2017-10-20T00:08:38.815Z,57.63
2017-10-20T00:09:38.811Z,57.24
2017-10-20T00:10:38.993Z,57.34
2017-10-20T00:11:38.743Z,57.34
2017-10-20T00:12:38.728Z,57.34
2017-10-20T00:13:38.807Z,57.34
2017-10-20T00:14:38.733Z,57.63
2017-10-20T00:15:38.733Z,57.63
2017-10-20T00:16:38.748Z,57.63
2017-10-20T00:17:38.735Z,57.82
2017-10-20T00:18:38.738Z,57.82
2017-10-20T00:19:38.818Z,58.39
2017-10-20T00:20:38.740Z,58.39
2017-10-20T00:21:38.743Z,57.92
2017-10-20T00:22:38.793Z,57.53
2017-10-20T00:23:38.824Z,57.53
2017-10-20T00:24:39.032Z,57.24
2017-10-20T00:25:38.758Z,57.63
2017-10-20T00:26:38.762Z,58.39
2017-10-20T00:27:38.765Z,58.11
2017-10-20T00:28:38.766Z,58.77
2017-10-20T00:29:38.836Z,58.58
2017-10-20T00:30:38.754Z,58.58
2017-10-20T00:31:38.753Z,59.34
2017-10-20T00:32:40.138Z,58.87
2017-10-20T00:33:38.764Z,57.63
2017-10-20T00:34:38.757Z,57.53
2017-10-20T00:35:38.783Z,57.72
2017-10-20T00:36:38.784Z,55.91
2017-10-20T00:37:38.763Z,55.43
2017-10-20T00:38:38.843Z,56.20
2017-10-20T00:39:38.764Z,55.91
2017-10-20T00:40:38.789Z,55.34
2017-10-20T00:41:38.787Z,56.01
2017-10-20T00:42:38.768Z,56.10
2017-10-20T00:43:38.769Z,57.34
2017-10-20T00:44:38.798Z,57.43
2017-10-20T00:45:38.772Z,57.53
2017-10-20T00:46:40.273Z,56.58
2017-10-20T00:47:38.854Z,57.43
2017-10-20T00:48:40.063Z,57.34
2017-10-20T00:49:41.899Z,56.67
2017-10-20T00:50:39.084Z,57.82
2017-10-20T00:51:38.780Z,57.53
2017-10-20T00:52:39.158Z,58.01
2017-10-20T00:53:38.782Z,57.43
2017-10-20T00:54:38.787Z,55.62
2017-10-20T00:55:38.786Z,56.87
2017-10-20T00:56:38.786Z,56.87
2017-10-20T00:57:38.788Z,56.38
2017-10-20T00:58:38.792Z,55.43
2017-10-20T00:59:38.790Z,55.15
2017-10-20T01:00:38.791Z,55.82
2017-10-20T01:01:38.793Z,55.53
2017-10-20T01:02:38.795Z,55.72
2017-10-20T01:03:38.876Z,54.96
2017-10-20T01:04:38.880Z,54.48
2017-10-20T01:05:38.799Z,54.48
2017-10-20T01:06:38.799Z,54.86
2017-10-20T01:07:38.882Z,53.74
2017-10-20T01:08:38.818Z,53.93
2017-10-20T01:09:38.818Z,54.57
2017-10-20T01:10:38.844Z,54.22
2017-10-20T01:11:38.820Z,54.03
2017-10-20T01:12:38.806Z,55.05
2017-10-20T01:13:38.809Z,55.05
2017-10-20T01:14:38.843Z,56.58
2017-10-20T01:15:38.893Z,55.62
2017-10-20T01:16:38.826Z,55.53
2017-10-20T01:17:38.995Z,55.82
2017-10-20T01:18:38.864Z,55.82
2017-10-20T01:19:38.901Z,55.62
2017-10-20T01:20:38.908Z,55.34
2017-10-20T01:21:38.919Z,55.24
2017-10-20T01:22:38.995Z,55.91
2017-10-20T01:23:38.867Z,55.91
2017-10-20T01:24:38.821Z,56.87
2017-10-20T01:25:38.826Z,56.48
2017-10-20T01:26:38.825Z,56.87
2017-10-20T01:27:38.826Z,56.01
2017-10-20T01:28:38.833Z,56.01
2017-10-20T01:29:38.905Z,55.62
2017-10-20T01:30:38.830Z,57.34
2017-10-20T01:31:38.831Z,56.96
2017-10-20T01:32:38.832Z,57.43
2017-10-20T01:33:38.834Z,57.34
2017-10-20T01:34:38.835Z,57.92
2017-10-20T01:35:38.912Z,58.77
2017-10-20T01:36:38.838Z,57.63
2017-10-20T01:37:38.888Z,57.92
2017-10-20T01:38:38.839Z,57.60
2017-10-20T01:39:38.841Z,57.31
2017-10-20T01:40:38.841Z,57.41
2017-10-20T01:41:38.843Z,57.31
2017-10-20T01:42:38.843Z,56.55
2017-10-20T01:43:38.849Z,56.17
2017-10-20T01:44:38.846Z,56.07
2017-10-20T01:45:38.847Z,55.79
2017-10-20T01:46:38.847Z,55.60
2017-10-20T01:47:38.847Z,55.12
2017-10-20T01:48:38.851Z,55.31
2017-10-20T01:49:38.851Z,55.31
2017-10-20T01:50:38.854Z,55.34
2017-10-20T01:51:38.852Z,55.15
2017-10-20T01:52:38.854Z,54.96
2017-10-20T01:53:38.855Z,54.96
2017-10-20T01:54:38.855Z,55.15
2017-10-20T01:55:38.864Z,54.67
2017-10-20T01:56:38.858Z,54.77
2017-10-20T01:57:38.859Z,54.48
2017-10-20T01:58:38.860Z,54.48
2017-10-20T01:59:38.860Z,54.10
2017-10-20T02:00:38.862Z,53.81
2017-10-20T02:01:38.863Z,54.10
2017-10-20T02:02:39.163Z,53.62
2017-10-20T02:03:38.864Z,53.53
2017-10-20T02:04:39.148Z,53.05
2017-10-20T02:05:38.868Z,53.91
2017-10-20T02:06:38.867Z,53.53
2017-10-20T02:07:38.869Z,53.62
2017-10-20T02:08:38.870Z,53.72
2017-10-20T02:09:38.872Z,53.53
2017-10-20T02:10:38.871Z,53.53
2017-10-20T02:11:38.873Z,53.62
2017-10-20T02:12:38.874Z,53.81
2017-10-20T02:13:38.875Z,53.81
2017-10-20T02:14:38.877Z,53.53
2017-10-20T02:15:38.877Z,53.91
2017-10-20T02:16:38.885Z,52.67
2017-10-20T02:17:38.879Z,52.67
2017-10-20T02:18:38.882Z,52.57
2017-10-20T02:19:38.882Z,52.57
2017-10-20T02:20:38.882Z,52.76
2017-10-20T02:21:38.883Z,52.57
2017-10-20T02:22:38.884Z,52.67
2017-10-20T02:23:38.886Z,52.86
2017-10-20T02:24:38.885Z,53.72
2017-10-20T02:25:38.888Z,54.48
2017-10-20T02:26:38.890Z,54.86
2017-10-20T02:27:38.889Z,54.48
2017-10-20T02:28:38.890Z,54.29
2017-10-20T02:29:38.898Z,54.77
2017-10-20T02:30:38.893Z,53.62
2017-10-20T02:31:38.894Z,51.54
2017-10-20T02:32:38.894Z,51.07
2017-10-20T02:33:38.896Z,50.98
2017-10-20T02:34:38.897Z,50.78
2017-10-20T02:35:38.897Z,50.88
2017-10-20T02:36:38.896Z,50.49
2017-10-20T02:37:38.978Z,50.88
2017-10-20T02:38:38.899Z,50.40
2017-10-20T02:39:38.900Z,49.73
2017-10-20T02:40:38.902Z,50.88
2017-10-20T02:41:38.903Z,49.35
2017-10-20T02:42:38.904Z,49.26
2017-10-20T02:43:38.903Z,48.39
2017-10-20T02:44:38.904Z,48.52
2017-10-20T02:45:38.907Z,47.94
2017-10-20T02:46:38.909Z,46.99
2017-10-20T02:47:38.908Z,47.37
2017-10-20T02:48:38.909Z,47.08
2017-10-20T02:49:38.912Z,46.80
2017-10-20T02:50:38.913Z,46.89
2017-10-20T02:51:38.914Z,46.61
2017-10-20T02:52:38.915Z,46.89
2017-10-20T02:53:38.917Z,46.80
2017-10-20T02:54:38.919Z,46.61
2017-10-20T02:55:38.917Z,46.70
2017-10-20T02:56:38.922Z,47.08
2017-10-20T02:57:38.922Z,47.56
2017-10-20T02:58:38.925Z,47.27
2017-10-20T02:59:38.925Z,47.18
2017-10-20T03:00:38.926Z,47.75
2017-10-20T03:01:38.927Z,47.56
2017-10-20T03:02:38.930Z,48.33
2017-10-20T03:03:38.931Z,48.23
2017-10-20T03:04:38.932Z,48.13
2017-10-20T03:05:38.933Z,48.80
2017-10-20T03:06:38.934Z,48.80
2017-10-20T03:07:38.937Z,48.52
2017-10-20T03:08:38.938Z,49.07
2017-10-20T03:09:38.941Z,49.16
2017-10-20T03:10:38.943Z,48.88
2017-10-20T03:11:38.942Z,49.64
2017-10-20T03:12:38.946Z,49.26
2017-10-20T03:13:38.946Z,49.54
2017-10-20T03:14:38.952Z,49.54
2017-10-20T03:15:38.948Z,49.54
2017-10-20T03:16:38.950Z,49.83
2017-10-20T03:17:38.960Z,49.64
2017-10-20T03:18:38.955Z,49.73
2017-10-20T03:19:38.955Z,49.93
2017-10-20T03:20:38.956Z,50.40
2017-10-20T03:21:38.959Z,50.88
2017-10-20T03:22:38.961Z,50.59
2017-10-20T03:23:38.965Z,50.49
2017-10-20T03:24:38.963Z,52.40
2017-10-20T03:25:38.966Z,52.50
2017-10-20T03:26:38.966Z,51.74
2017-10-20T03:27:38.969Z,51.45
2017-10-20T03:28:38.968Z,52.31
2017-10-20T03:29:38.972Z,52.09
2017-10-20T03:30:38.973Z,52.57
2017-10-20T03:31:38.974Z,52.86
2017-10-20T03:32:38.976Z,53.05
2017-10-20T03:33:38.977Z,53.62
2017-10-20T03:34:38.978Z,53.43
2017-10-20T03:35:38.980Z,53.91
2017-10-20T03:36:38.981Z,54.00
2017-10-20T03:37:38.982Z,53.81
2017-10-20T03:38:38.985Z,53.62
2017-10-20T03:39:38.985Z,53.53
2017-10-20T03:40:38.992Z,53.62
2017-10-20T03:41:38.989Z,52.67
2017-10-20T03:42:38.991Z,52.95
2017-10-20T03:43:38.991Z,52.38
2017-10-20T03:44:38.993Z,53.05
2017-10-20T03:45:38.994Z,52.76
2017-10-20T03:46:38.996Z,52.67
2017-10-20T03:47:38.998Z,53.05
2017-10-20T03:48:38.999Z,53.62
2017-10-20T03:49:39.001Z,53.05
2017-10-20T03:50:39.001Z,53.14
2017-10-20T03:51:39.002Z,52.67
2017-10-20T03:52:39.003Z,52.67
2017-10-20T03:53:39.008Z,53.05
2017-10-20T03:54:39.005Z,53.24
2017-10-20T03:55:39.007Z,53.43
2017-10-20T03:56:39.008Z,53.81
2017-10-20T03:57:39.009Z,53.33
2017-10-20T03:58:39.012Z,52.67
2017-10-20T03:59:39.013Z,53.14
2017-10-20T04:00:39.016Z,53.43
2017-10-20T04:01:39.014Z,54.00
2017-10-20T04:02:39.016Z,53.91
2017-10-20T04:03:39.016Z,54.29
2017-10-20T04:04:39.017Z,54.07
2017-10-20T04:05:39.019Z,54.48
2017-10-20T04:06:39.020Z,54.36
2017-10-20T04:07:39.021Z,54.36
2017-10-20T04:08:39.021Z,53.50
2017-10-20T04:09:39.022Z,53.12
2017-10-20T04:10:39.026Z,53.31
2017-10-20T04:11:39.027Z,53.69
2017-10-20T04:12:39.032Z,54.17
2017-10-20T04:13:39.028Z,54.83
2017-10-20T04:14:39.030Z,55.21
2017-10-20T04:15:39.030Z,54.07
2017-10-20T04:16:39.031Z,54.64
2017-10-20T04:17:39.033Z,54.83
2017-10-20T04:18:39.033Z,53.78
2017-10-20T04:19:39.035Z,53.69
2017-10-20T04:20:39.034Z,54.17
2017-10-20T04:21:39.035Z,53.62
2017-10-20T04:22:39.037Z,54.07
2017-10-20T04:23:39.038Z,54.36
2017-10-20T04:24:39.038Z,54.45
2017-10-20T04:25:39.041Z,54.83
2017-10-20T04:26:39.041Z,54.83
2017-10-20T04:27:39.042Z,54.64
2017-10-20T04:28:39.042Z,54.55
2017-10-20T04:29:39.044Z,54.83
2017-10-20T04:30:39.046Z,55.02
2017-10-20T04:31:39.048Z,55.12
2017-10-20T04:32:39.047Z,55.02
2017-10-20T04:33:39.048Z,55.31
2017-10-20T04:34:39.050Z,55.02
2017-10-20T04:35:39.051Z,55.02
2017-10-20T04:36:39.053Z,55.31
2017-10-20T04:37:39.054Z,55.21
2017-10-20T04:38:39.055Z,55.60
2017-10-20T04:39:39.054Z,55.12
2017-10-20T04:40:39.057Z,55.12
2017-10-20T04:41:39.058Z,55.31
2017-10-20T04:42:39.059Z,55.31
2017-10-20T04:43:39.058Z,55.21
2017-10-20T04:44:39.060Z,55.21
2017-10-20T04:45:39.062Z,55.28
2017-10-20T04:46:39.068Z,55.31
2017-10-20T04:47:39.063Z,55.28
2017-10-20T04:48:39.063Z,55.28
2017-10-20T04:49:39.064Z,55.12
2017-10-20T04:50:39.065Z,55.12
2017-10-20T04:51:39.066Z,54.64
2017-10-20T04:52:39.069Z,54.74
2017-10-20T04:53:39.066Z,54.45
2017-10-20T04:54:39.069Z,54.45
2017-10-20T04:55:39.075Z,54.26
2017-10-20T04:56:39.069Z,54.55
2017-10-20T04:57:39.078Z,54.36
2017-10-20T04:58:39.071Z,54.64
2017-10-20T04:59:39.072Z,54.55
2017-10-20T05:00:39.073Z,53.69
2017-10-20T05:01:39.074Z,53.59
2017-10-20T05:02:39.074Z,53.97
2017-10-20T05:03:39.074Z,53.50
2017-10-20T05:04:39.076Z,53.50
2017-10-20T05:05:39.077Z,53.50
2017-10-20T05:06:39.078Z,53.59
2017-10-20T05:07:39.078Z,53.41
2017-10-20T05:08:39.079Z,53.59
2017-10-20T05:09:39.081Z,53.69
2017-10-20T05:10:39.081Z,53.69
2017-10-20T05:11:39.083Z,53.59
2017-10-20T05:12:39.084Z,53.50
2017-10-20T05:13:39.083Z,53.31
2017-10-20T05:14:39.085Z,53.59
2017-10-20T05:15:39.086Z,53.50
2017-10-20T05:16:39.087Z,53.31
2017-10-20T05:17:39.087Z,53.97
2017-10-20T05:18:39.089Z,53.59
2017-10-20T05:19:39.089Z,53.31
2017-10-20T05:20:39.089Z,53.59
2017-10-20T05:21:39.093Z,54.07
2017-10-20T05:22:39.092Z,54.74
2017-10-20T05:23:39.093Z,54.64
2017-10-20T05:24:39.094Z,55.60
2017-10-20T05:25:39.096Z,55.21
2017-10-20T05:26:39.097Z,55.31
2017-10-20T05:27:39.098Z,55.28
2017-10-20T05:28:39.097Z,55.38
2017-10-20T05:29:39.099Z,55.95
2017-10-20T05:30:39.099Z,55.66
2017-10-20T05:31:39.100Z,55.95
2017-10-20T05:32:39.101Z,56.14
2017-10-20T05:33:39.103Z,56.52
2017-10-20T05:34:39.105Z,57.48
2017-10-20T05:35:39.103Z,56.90
2017-10-20T05:36:39.104Z,57.19
2017-10-20T05:37:39.112Z,56.81
2017-10-20T05:38:39.106Z,57.57
2017-10-20T05:39:39.105Z,57.19
2017-10-20T05:40:39.107Z,57.48
2017-10-20T05:41:39.106Z,57.19
2017-10-20T05:42:39.108Z,56.52
2017-10-20T05:43:39.108Z,57.00
2017-10-20T05:44:39.114Z,56.90
2017-10-20T05:45:39.109Z,56.33
2017-10-20T05:46:39.109Z,56.71
2017-10-20T05:47:39.109Z,56.52
2017-10-20T05:48:39.111Z,57.00
2017-10-20T05:49:39.112Z,56.52
2017-10-20T05:50:39.112Z,57.00
2017-10-20T05:51:39.110Z,57.09
2017-10-20T05:52:39.112Z,55.95
2017-10-20T05:53:39.112Z,55.28
2017-10-20T05:54:39.114Z,55.28
2017-10-20T05:55:39.113Z,55.00
2017-10-20T05:56:39.114Z,55.21
2017-10-20T05:57:39.114Z,55.31
2017-10-20T05:58:39.114Z,55.12
2017-10-20T05:59:39.116Z,54.17
2017-10-20T06:00:39.117Z,54.26
2017-10-20T06:01:39.124Z,54.26
2017-10-20T06:02:39.118Z,53.59
2017-10-20T06:03:39.118Z,53.41
2017-10-20T06:04:39.119Z,53.69
2017-10-20T06:05:39.120Z,53.69
2017-10-20T06:06:39.120Z,53.50
2017-10-20T06:07:39.120Z,53.78
2017-10-20T06:08:39.121Z,53.50
2017-10-20T06:09:39.122Z,53.41
2017-10-20T06:10:39.123Z,53.12
2017-10-20T06:11:39.124Z,53.41
2017-10-20T06:12:39.123Z,53.69
2017-10-20T06:13:39.126Z,54.36
2017-10-20T06:14:39.127Z,53.88
2017-10-20T06:15:39.126Z,54.45
2017-10-20T06:16:39.127Z,54.26
2017-10-20T06:17:39.129Z,54.74
2017-10-20T06:18:39.130Z,54.55
2017-10-20T06:19:39.129Z,54.45
2017-10-20T06:20:39.130Z,54.55
2017-10-20T06:21:39.131Z,54.07
2017-10-20T06:22:39.133Z,54.36
2017-10-20T06:23:39.136Z,54.74
2017-10-20T06:24:39.133Z,54.64
2017-10-20T06:25:39.134Z,53.50
2017-10-20T06:26:39.135Z,54.07
2017-10-20T06:27:39.138Z,54.17
2017-10-20T06:28:39.137Z,54.17
2017-10-20T06:29:39.141Z,54.07
2017-10-20T06:30:39.139Z,54.07
2017-10-20T06:31:39.139Z,54.74
2017-10-20T06:32:39.139Z,54.45
2017-10-20T06:33:39.142Z,55.12
2017-10-20T06:34:39.144Z,54.64
2017-10-20T06:35:39.144Z,54.74
2017-10-20T06:36:39.144Z,53.72
2017-10-20T06:37:39.146Z,54.19
2017-10-20T06:38:39.146Z,54.10
2017-10-20T06:39:39.148Z,53.62
2017-10-20T06:40:39.149Z,53.43
2017-10-20T06:41:39.149Z,53.14
2017-10-20T06:42:39.152Z,53.53
2017-10-20T06:43:39.151Z,53.53
2017-10-20T06:44:39.155Z,52.57
2017-10-20T06:45:39.155Z,52.95
2017-10-20T06:46:39.155Z,52.76
2017-10-20T06:47:39.158Z,52.95
2017-10-20T06:48:39.158Z,52.57
2017-10-20T06:49:39.162Z,52.67
2017-10-20T06:50:39.163Z,53.62
2017-10-20T06:51:39.172Z,52.57
2017-10-20T06:52:39.165Z,53.43
2017-10-20T06:53:39.168Z,52.76
2017-10-20T06:54:39.167Z,52.86
2017-10-20T06:55:39.169Z,52.59
2017-10-20T06:56:39.170Z,52.12
2017-10-20T06:57:39.171Z,51.64
2017-10-20T06:58:39.175Z,51.74
2017-10-20T06:59:39.175Z,51.45
2017-10-20T07:00:39.176Z,50.98
2017-10-20T07:01:39.180Z,50.62
2017-10-20T07:02:39.182Z,50.43
2017-10-20T07:03:39.182Z,50.81
2017-10-20T07:04:39.202Z,50.45
2017-10-20T07:05:39.187Z,49.59
2017-10-20T07:06:39.190Z,48.66
2017-10-20T07:07:39.196Z,47.06
2017-10-20T07:08:39.196Z,45.36
2017-10-20T07:09:39.197Z,43.76
2017-10-20T07:10:39.202Z,43.10
2017-10-20T07:11:39.203Z,41.60
2017-10-20T07:12:39.207Z,40.37
2017-10-20T07:13:39.213Z,39.04
2017-10-20T07:14:39.218Z,38.01
2017-10-20T07:15:39.220Z,37.34
2017-10-20T07:16:39.227Z,36.95
2017-10-20T07:17:39.269Z,37.24
2017-10-20T07:18:39.236Z,37.13
2017-10-20T07:19:39.241Z,37.80
2017-10-20T07:20:39.245Z,39.31
2017-10-20T07:21:39.253Z,39.68
2017-10-20T07:22:39.257Z,40.64
2017-10-20T07:23:39.262Z,42.17
2017-10-20T07:24:39.268Z,42.53
2017-10-20T07:25:39.274Z,43.20
2017-10-20T07:26:39.278Z,42.34
2017-10-20T07:27:39.283Z,43.10
2017-10-20T07:28:39.287Z,43.77
2017-10-20T07:29:39.292Z,44.71
2017-10-20T07:30:39.298Z,44.54
2017-10-20T07:31:39.303Z,43.30
2017-10-20T07:32:39.325Z,42.44
2017-10-20T07:33:39.313Z,42.63
2017-10-20T07:34:39.318Z,42.80
2017-10-20T07:35:39.323Z,42.99
2017-10-20T07:36:39.328Z,43.95
2017-10-20T07:37:39.333Z,42.72
2017-10-20T07:38:39.338Z,43.10
2017-10-20T07:39:39.342Z,41.28
2017-10-20T07:40:39.350Z,40.61
2017-10-20T07:41:39.353Z,40.44
2017-10-20T07:42:39.359Z,40.42
2017-10-20T07:43:39.363Z,40.54
2017-10-20T07:44:39.367Z,40.44
2017-10-20T07:45:39.373Z,40.35
2017-10-20T07:46:39.380Z,40.54
2017-10-20T07:47:39.384Z,40.35
2017-10-20T07:48:39.388Z,40.06
2017-10-20T07:49:39.393Z,39.58
2017-10-20T07:50:39.399Z,39.48
2017-10-20T07:51:39.404Z,39.68
2017-10-20T07:52:39.408Z,39.77
2017-10-20T07:53:39.414Z,39.89
2017-10-20T07:54:39.422Z,39.31
2017-10-20T07:55:39.425Z,38.37
2017-10-20T07:56:39.430Z,37.62
2017-10-20T07:57:39.436Z,37.35
2017-10-20T07:58:39.444Z,36.03
2017-10-20T07:59:39.449Z,34.62
2017-10-20T08:00:39.456Z,33.67
2017-10-20T08:01:39.464Z,32.64
2017-10-20T08:02:39.471Z,32.90
2017-10-20T08:03:39.478Z,33.39
2017-10-20T08:04:39.492Z,33.31
2017-10-20T08:05:39.493Z,33.79
2017-10-20T08:06:39.503Z,33.42
2017-10-20T08:07:39.511Z,33.61
2017-10-20T08:08:39.519Z,33.03
2017-10-20T08:09:39.527Z,33.50
2017-10-20T08:10:39.537Z,34.45
2017-10-20T08:11:39.545Z,35.77
2017-10-20T08:12:39.554Z,36.91
2017-10-20T08:13:39.562Z,37.57
2017-10-20T08:14:39.570Z,38.32
2017-10-20T08:15:39.577Z,38.89
2017-10-20T08:16:39.584Z,39.37
2017-10-20T08:17:39.592Z,39.28
2017-10-20T08:18:39.602Z,38.99
2017-10-20T08:19:39.608Z,38.89
2017-10-20T08:20:39.622Z,38.99
2017-10-20T08:21:39.629Z,39.37
2017-10-20T08:22:39.632Z,39.68
2017-10-20T08:23:39.643Z,38.93
2017-10-20T08:24:39.647Z,38.45
2017-10-20T08:25:39.655Z,37.32
2017-10-20T08:26:39.663Z,35.12
2017-10-20T08:27:39.671Z,33.71
2017-10-20T08:28:39.680Z,33.34
2017-10-20T08:29:39.690Z,32.38
2017-10-20T08:30:39.700Z,31.70
2017-10-20T08:31:39.710Z,31.32
2017-10-20T08:32:39.719Z,30.35
2017-10-20T08:33:39.730Z,32.34
2017-10-20T08:34:39.740Z,32.62
2017-10-20T08:35:39.749Z,32.90
2017-10-20T08:36:39.760Z,32.52
2017-10-20T08:37:39.769Z,32.62
2017-10-20T08:38:39.779Z,32.64
2017-10-20T08:39:39.790Z,31.67
2017-10-20T08:40:39.800Z,32.44
2017-10-20T08:41:39.809Z,34.16
2017-10-20T08:42:39.819Z,34.62
2017-10-20T08:43:39.830Z,34.62
2017-10-20T08:44:39.840Z,35.30
2017-10-20T08:45:39.851Z,36.25
2017-10-20T08:46:39.860Z,36.15
2017-10-20T08:47:39.868Z,37.10
2017-10-20T08:48:39.877Z,36.33
2017-10-20T08:49:39.887Z,37.10
2017-10-20T08:50:39.895Z,38.07
2017-10-20T08:51:39.904Z,37.77
2017-10-20T08:52:39.912Z,38.26
2017-10-20T08:53:39.923Z,37.57
2017-10-20T08:54:39.931Z,37.27
2017-10-20T08:55:39.938Z,37.30
2017-10-20T08:56:39.945Z,35.95
2017-10-20T08:57:39.955Z,35.85
2017-10-20T08:58:39.962Z,35.20
2017-10-20T08:59:39.970Z,36.18
2017-10-20T09:00:39.979Z,35.14
2017-10-20T09:01:39.987Z,33.33
2017-10-20T09:02:39.994Z,31.41
2017-10-20T09:03:40.002Z,31.80
2017-10-20T09:04:40.010Z,32.39
2017-10-20T09:05:40.019Z,31.43
2017-10-20T09:06:40.029Z,31.54
2017-10-20T09:07:40.035Z,30.49
2017-10-20T09:08:40.044Z,27.81
2017-10-20T09:09:40.056Z,27.44
2017-10-20T09:10:40.062Z,26.86
2017-10-20T09:11:40.072Z,26.87
2017-10-20T09:12:40.082Z,26.57
2017-10-20T09:13:40.096Z,25.62
2017-10-20T09:14:40.101Z,25.82
2017-10-20T09:15:40.112Z,26.20
2017-10-20T09:16:40.123Z,26.12
2017-10-20T09:17:40.134Z,25.35
2017-10-20T09:18:40.145Z,25.26
2017-10-20T09:19:40.155Z,25.36
2017-10-20T09:20:40.168Z,25.44
2017-10-20T09:21:40.177Z,26.50
2017-10-20T09:22:40.190Z,27.44
2017-10-20T09:23:40.200Z,29.25
2017-10-20T09:24:40.213Z,30.41
2017-10-20T09:25:40.223Z,29.64
2017-10-20T09:26:40.242Z,30.04
2017-10-20T09:27:40.244Z,28.20
2017-10-20T09:28:40.255Z,26.86
2017-10-20T09:29:40.267Z,27.45
2017-10-20T09:30:40.279Z,25.90
2017-10-20T09:31:40.290Z,25.82
2017-10-20T09:32:40.301Z,25.92
2017-10-20T09:33:40.312Z,26.20
2017-10-20T09:34:40.324Z,26.68
2017-10-20T09:35:40.333Z,26.31
2017-10-20T09:36:40.345Z,26.70
2017-10-20T09:37:40.357Z,26.79
2017-10-20T09:38:40.369Z,27.76
2017-10-20T09:39:40.379Z,26.30
2017-10-20T09:40:40.390Z,26.99
2017-10-20T09:41:40.403Z,24.77
2017-10-20T09:42:40.415Z,23.70
2017-10-20T09:43:40.425Z,24.77
2017-10-20T09:44:40.438Z,25.35
2017-10-20T09:45:40.467Z,26.89
2017-10-20T09:46:40.461Z,25.83
2017-10-20T09:47:40.472Z,24.77
2017-10-20T09:48:40.483Z,25.83
2017-10-20T09:49:40.495Z,25.05
2017-10-20T09:50:40.508Z,25.54
2017-10-20T09:51:40.520Z,25.36
2017-10-20T09:52:40.531Z,24.60
2017-10-20T09:53:40.542Z,25.29
2017-10-20T09:54:40.556Z,23.94
2017-10-20T09:55:40.567Z,22.60
2017-10-20T09:56:40.580Z,22.22
2017-10-20T09:57:40.594Z,21.25
2017-10-20T09:58:40.606Z,21.55
2017-10-20T09:59:40.618Z,19.80
2017-10-20T10:00:40.637Z,21.27
2017-10-20T10:01:40.647Z,22.34
2017-10-20T10:02:40.660Z,20.40
2017-10-20T10:03:40.675Z,19.73
2017-10-20T10:04:40.690Z,19.73
2017-10-20T10:05:40.708Z,20.21
2017-10-20T10:06:40.720Z,20.89
2017-10-20T10:07:40.735Z,21.37
2017-10-20T10:08:40.750Z,20.21
2017-10-20T10:09:40.764Z,20.01
2017-10-20T10:10:40.780Z,20.21
2017-10-20T10:11:40.796Z,21.29
2017-10-20T10:12:40.810Z,20.90
2017-10-20T10:13:40.827Z,19.82
2017-10-20T10:14:40.845Z,20.50
2017-10-20T10:15:40.859Z,20.79
2017-10-20T10:16:40.874Z,23.24
2017-10-20T10:17:40.890Z,20.42
2017-10-20T10:18:40.914Z,19.64
2017-10-20T10:19:40.922Z,19.43
2017-10-20T10:20:40.939Z,20.21
2017-10-20T10:21:40.955Z,20.60
2017-10-20T10:22:40.971Z,21.47
2017-10-20T10:23:40.987Z,21.48
2017-10-20T10:24:41.014Z,21.00
2017-10-20T10:25:41.019Z,21.29
2017-10-20T10:26:41.034Z,21.58
2017-10-20T10:27:41.053Z,21.58
2017-10-20T10:28:41.081Z,21.40
2017-10-20T10:29:41.085Z,20.90
2017-10-20T10:30:41.102Z,21.19
2017-10-20T10:31:41.117Z,22.37
2017-10-20T10:32:41.135Z,21.58
2017-10-20T10:33:41.152Z,22.47
2017-10-20T10:34:41.168Z,21.20
2017-10-20T10:35:41.182Z,20.42
2017-10-20T10:36:41.202Z,21.19
2017-10-20T10:37:41.217Z,23.43
2017-10-20T10:38:41.235Z,23.04
2017-10-20T10:39:41.252Z,21.58
2017-10-20T10:40:41.267Z,20.71
2017-10-20T10:41:41.284Z,20.31
2017-10-20T10:42:41.301Z,21.09
2017-10-20T10:43:41.333Z,22.64
2017-10-20T10:44:41.333Z,21.37
2017-10-20T10:45:41.350Z,20.88
2017-10-20T10:46:41.366Z,22.44
2017-10-20T10:47:41.381Z,22.24
2017-10-20T10:48:41.396Z,21.17
2017-10-20T10:49:41.414Z,21.27
2017-10-20T10:50:41.430Z,23.02
2017-10-20T10:51:41.443Z,23.90
2017-10-20T10:52:41.461Z,23.61
2017-10-20T10:53:41.476Z,24.21
2017-10-20T10:54:41.492Z,22.94
2017-10-20T10:55:41.506Z,22.34
2017-10-20T10:56:41.521Z,20.01
2017-10-20T10:57:41.536Z,20.88
2017-10-20T10:58:41.553Z,21.56
2017-10-20T10:59:41.565Z,22.13
2017-10-20T11:00:41.582Z,22.80
2017-10-20T11:01:41.596Z,22.41
2017-10-20T11:02:41.611Z,22.33
2017-10-20T11:03:41.626Z,22.71
2017-10-20T11:04:41.641Z,22.22
2017-10-20T11:05:41.656Z,22.71
2017-10-20T11:06:41.669Z,22.51
2017-10-20T11:07:41.683Z,24.65
2017-10-20T11:08:41.698Z,22.80
2017-10-20T11:09:41.712Z,21.44
2017-10-20T11:10:41.726Z,22.30
2017-10-20T11:11:41.739Z,24.26
2017-10-20T11:12:41.753Z,22.89
2017-10-20T11:13:41.767Z,22.02
2017-10-20T11:14:41.783Z,20.65
2017-10-20T11:15:41.794Z,21.33
2017-10-20T11:16:41.808Z,20.06
2017-10-20T11:17:41.822Z,20.65
2017-10-20T11:18:41.835Z,22.69
2017-10-20T11:19:41.852Z,22.50
2017-10-20T11:20:41.863Z,23.27
2017-10-20T11:21:41.877Z,22.69
2017-10-20T11:22:41.890Z,22.20
2017-10-20T11:23:41.903Z,23.66
2017-10-20T11:24:41.917Z,24.44
2017-10-20T11:25:41.930Z,22.50
2017-10-20T11:26:41.949Z,22.30
2017-10-20T11:27:41.957Z,24.62
2017-10-20T11:28:41.971Z,23.16
2017-10-20T11:29:41.983Z,23.46
2017-10-20T11:30:41.997Z,22.39
2017-10-20T11:31:42.009Z,23.65
2017-10-20T11:32:42.023Z,23.66
2017-10-20T11:33:42.036Z,23.66
2017-10-20T11:34:42.051Z,23.37
2017-10-20T11:35:42.063Z,22.79
2017-10-20T11:36:42.075Z,22.40
2017-10-20T11:37:42.088Z,22.31
2017-10-20T11:38:42.102Z,22.22
2017-10-20T11:39:42.114Z,23.38
2017-10-20T11:40:42.128Z,22.22
2017-10-20T11:41:42.141Z,22.81
2017-10-20T11:42:42.155Z,20.68
2017-10-20T11:43:42.167Z,20.39
2017-10-20T11:44:42.182Z,23.10
2017-10-20T11:45:42.194Z,21.36
2017-10-20T11:46:42.207Z,20.57
2017-10-20T11:47:42.221Z,23.18
2017-10-20T11:48:42.236Z,24.44
2017-10-20T11:49:42.248Z,23.08
2017-10-20T11:50:42.262Z,22.20
2017-10-20T11:51:42.275Z,24.45
2017-10-20T11:52:42.290Z,22.60
2017-10-20T11:53:42.309Z,21.72
2017-10-20T11:54:42.318Z,22.11
2017-10-20T11:55:42.329Z,22.97
2017-10-20T11:56:42.344Z,23.16
2017-10-20T11:57:42.357Z,22.68
2017-10-20T11:58:42.371Z,23.85
2017-10-20T11:59:42.384Z,24.04
2017-10-20T12:00:42.396Z,24.32
2017-10-20T12:01:42.417Z,23.53
2017-10-20T12:02:42.423Z,23.44
2017-10-20T12:03:42.435Z,24.50
2017-10-20T12:04:42.447Z,24.41
2017-10-20T12:05:42.461Z,24.80
2017-10-20T12:06:42.475Z,24.51
2017-10-20T12:07:42.487Z,24.04
2017-10-20T12:08:42.501Z,23.55
2017-10-20T12:09:42.515Z,22.97
2017-10-20T12:10:42.527Z,23.35
2017-10-20T12:11:42.539Z,23.83
2017-10-20T12:12:42.552Z,23.74
2017-10-20T12:13:42.566Z,23.74
2017-10-20T12:14:42.579Z,23.26
2017-10-20T12:15:42.590Z,23.07
2017-10-20T12:16:42.603Z,22.19
2017-10-20T12:17:42.617Z,23.06
2017-10-20T12:18:42.630Z,23.54
2017-10-20T12:19:42.642Z,23.25
2017-10-20T12:20:42.655Z,24.03
2017-10-20T12:21:42.668Z,23.74
2017-10-20T12:22:42.683Z,24.12
2017-10-20T12:23:42.695Z,23.64
2017-10-20T12:24:42.708Z,24.04
2017-10-20T12:25:42.721Z,23.46
2017-10-20T12:26:42.734Z,23.16
2017-10-20T12:27:42.745Z,23.85
2017-10-20T12:28:42.759Z,24.04
2017-10-20T12:29:42.772Z,24.91
2017-10-20T12:30:42.786Z,22.97
2017-10-20T12:31:42.798Z,24.04
2017-10-20T12:32:42.812Z,23.64
2017-10-20T12:33:42.826Z,24.22
2017-10-20T12:34:42.839Z,24.41
2017-10-20T12:35:42.851Z,24.32
2017-10-20T12:36:42.869Z,24.61
2017-10-20T12:37:42.879Z,23.16
2017-10-20T12:38:42.891Z,24.52
2017-10-20T12:39:42.905Z,24.52
2017-10-20T12:40:42.918Z,26.07
2017-10-20T12:41:42.931Z,23.08
2017-10-20T12:42:42.944Z,22.10
2017-10-20T12:43:42.956Z,23.35
2017-10-20T12:44:42.971Z,23.83
2017-10-20T12:45:42.986Z,25.40
2017-10-20T12:46:42.999Z,26.65
2017-10-20T12:47:43.009Z,26.17
2017-10-20T12:48:43.023Z,26.46
2017-10-20T12:49:43.037Z,25.20
2017-10-20T12:50:43.049Z,24.52
2017-10-20T12:51:43.063Z,24.15
2017-10-20T12:52:43.077Z,22.78